createdAt,value
2018-04-16T00:01:02.305Z,39.80
2018-04-16T00:03:29.859Z,42.00
2018-04-16T00:05:57.458Z,41.67
2018-04-16T00:08:25.219Z,43.80
2018-04-16T00:10:52.833Z,44.27
2018-04-16T00:13:20.778Z,50.37
2018-04-16T00:15:48.333Z,38.77
2018-04-16T00:18:16.019Z,48.83
2018-04-16T00:20:43.581Z,42.63
2018-04-16T00:23:11.122Z,40.90
2018-04-16T00:25:38.719Z,38.27
2018-04-16T00:28:06.311Z,38.20
2018-04-16T00:30:33.887Z,39.47
2018-04-16T00:33:07.147Z,34.40
2018-04-16T00:35:40.566Z,28.17
2018-04-16T00:38:13.817Z,39.67
2018-04-16T00:40:47.130Z,37.90
2018-04-16T00:43:20.125Z,34.90
2018-04-16T00:45:53.229Z,36.63
2018-04-16T00:48:26.428Z,30.17
2018-04-16T00:50:59.586Z,29.40
2018-04-16T00:53:44.909Z,32.03
2018-04-16T00:56:18.009Z,30.60
2018-04-16T00:58:51.448Z,25.67
2018-04-16T01:01:24.433Z,29.63
2018-04-16T01:03:57.884Z,27.80
2018-04-16T01:06:31.049Z,27.70
2018-04-16T01:09:04.189Z,22.60
2018-04-16T01:11:37.229Z,27.40
2018-04-16T01:14:10.366Z,23.87
2018-04-16T01:16:43.613Z,29.40
2018-04-16T01:19:16.886Z,24.20
2018-04-16T01:21:50.069Z,30.77
2018-04-16T01:24:23.290Z,21.60
2018-04-16T01:26:56.388Z,24.80
2018-04-16T01:29:29.501Z,27.60
2018-04-16T01:32:02.657Z,24.33
2018-04-16T01:34:35.805Z,27.00
2018-04-16T01:37:09.229Z,28.40
2018-04-16T01:42:49.767Z,27.00
2018-04-16T01:45:22.938Z,22.30
2018-04-16T01:47:56.473Z,26.07
2018-04-16T01:50:29.723Z,27.60
2018-04-16T01:53:02.833Z,27.73
2018-04-16T01:55:36.393Z,25.93
2018-04-16T01:58:09.567Z,25.30
2018-04-16T02:00:42.804Z,28.70
2018-04-16T02:03:16.305Z,23.60
2018-04-16T02:05:49.513Z,26.00
2018-04-16T02:08:22.762Z,28.50
2018-04-16T02:13:57.895Z,31.80
2018-04-16T02:16:31.129Z,34.30
2018-04-16T02:19:04.199Z,28.97
2018-04-16T02:21:37.624Z,27.80
2018-04-16T02:24:11.137Z,30.13
2018-04-16T02:26:44.250Z,28.53
2018-04-16T02:29:17.598Z,28.50
2018-04-16T02:31:50.777Z,31.20
2018-04-16T02:34:24.197Z,28.60
2018-04-16T02:36:57.411Z,31.17
2018-04-16T02:39:30.781Z,32.10
2018-04-16T02:42:04.092Z,28.97
2018-04-16T02:44:37.289Z,31.57
2018-04-16T02:47:10.429Z,28.53
2018-04-16T02:49:43.912Z,31.47
2018-04-16T02:52:17.227Z,30.73
2018-04-16T02:54:50.498Z,37.03
2018-04-16T02:57:24.063Z,38.87
2018-04-16T02:59:57.249Z,34.30
2018-04-16T03:02:30.530Z,34.77
2018-04-16T03:05:03.537Z,34.67
2018-04-16T03:07:36.971Z,34.63
2018-04-16T03:10:10.177Z,37.20
2018-04-16T03:12:43.603Z,39.20
2018-04-16T03:15:16.870Z,42.77
2018-04-16T03:17:50.103Z,37.93
2018-04-16T03:20:23.203Z,37.70
2018-04-16T03:22:56.349Z,40.17
2018-04-16T03:25:29.678Z,41.07
2018-04-16T03:28:02.785Z,50.03
2018-04-16T03:30:36.054Z,53.40
2018-04-16T03:33:09.349Z,55.50
2018-04-16T03:35:42.727Z,41.87
2018-04-16T03:38:16.019Z,41.40
2018-04-16T03:40:49.176Z,47.27
2018-04-16T03:43:22.382Z,46.13
2018-04-16T03:45:55.458Z,39.63
2018-04-16T03:48:28.702Z,43.63
2018-04-16T03:51:01.980Z,41.20
2018-04-16T03:53:31.437Z,47.30
2018-04-16T03:56:00.606Z,43.43
2018-04-16T03:58:28.383Z,45.23
2018-04-16T04:00:55.975Z,45.00
2018-04-16T04:03:23.741Z,42.83
2018-04-16T04:05:51.548Z,49.30
2018-04-16T04:08:19.243Z,46.13
2018-04-16T04:10:46.817Z,51.23
2018-04-16T04:13:14.394Z,44.77
2018-04-16T04:15:41.984Z,40.60
2018-04-16T04:18:09.787Z,44.97
2018-04-16T04:20:37.338Z,44.13
2018-04-16T04:23:17.225Z,42.50
2018-04-16T04:25:56.839Z,43.87
2018-04-16T04:28:36.437Z,40.43
2018-04-16T04:31:03.985Z,46.67
2018-04-16T04:33:31.549Z,38.23
2018-04-16T04:35:59.345Z,42.97
2018-04-16T04:38:26.893Z,43.00
2018-04-16T04:40:54.474Z,38.17
2018-04-16T04:43:22.039Z,42.77
2018-04-16T04:45:50.164Z,45.10
2018-04-16T04:48:17.849Z,51.83
2018-04-16T04:50:45.511Z,49.90
2018-04-16T04:53:13.244Z,54.77
2018-04-16T04:55:40.828Z,55.17
2018-04-16T04:58:08.374Z,55.00
2018-04-16T05:00:35.977Z,50.00
2018-04-16T05:03:03.796Z,51.13
2018-04-16T05:05:31.348Z,47.30
2018-04-16T05:07:58.947Z,43.17
2018-04-16T05:10:26.503Z,39.53
2018-04-16T05:12:54.292Z,41.17
2018-04-16T05:15:21.879Z,36.43
2018-04-16T05:17:49.499Z,36.83
2018-04-16T05:20:17.234Z,43.53
2018-04-16T05:22:44.879Z,36.10
2018-04-16T05:25:12.670Z,40.50
2018-04-16T05:27:40.859Z,35.60
2018-04-16T05:30:08.534Z,36.07
2018-04-16T05:32:36.088Z,35.43
2018-04-16T05:35:03.697Z,38.03
2018-04-16T05:37:31.282Z,34.27
2018-04-16T05:39:58.861Z,39.37
2018-04-16T05:42:26.452Z,35.10
2018-04-16T05:44:54.024Z,37.23
2018-04-16T05:47:21.854Z,38.20
2018-04-16T05:49:49.454Z,30.07
2018-04-16T05:52:17.024Z,30.20
2018-04-16T05:54:44.878Z,35.17
2018-04-16T05:57:12.493Z,32.03
2018-04-16T05:59:40.129Z,36.93
2018-04-16T06:02:07.681Z,31.70
2018-04-16T06:04:35.482Z,41.63
2018-04-16T06:07:03.067Z,35.67
2018-04-16T06:09:30.615Z,39.10
2018-04-16T06:11:58.190Z,30.83
2018-04-16T06:14:25.784Z,34.53
2018-04-16T06:16:53.412Z,35.30
2018-04-16T06:19:20.990Z,32.30
2018-04-16T06:21:48.559Z,34.13
2018-04-16T06:24:16.338Z,26.63
2018-04-16T06:26:44.057Z,26.30
2018-04-16T06:29:11.677Z,23.40
2018-04-16T06:31:39.505Z,23.07
2018-04-16T06:34:07.282Z,17.33
2018-04-16T06:36:34.872Z,16.23
2018-04-16T06:39:02.438Z,18.60
2018-04-16T06:41:30.068Z,17.10
2018-04-16T06:43:57.879Z,16.20
2018-04-16T06:46:25.442Z,20.30
2018-04-16T06:48:53.028Z,15.47
2018-04-16T06:51:20.695Z,16.57
2018-04-16T06:53:48.890Z,18.27
2018-04-16T06:56:16.674Z,18.37
2018-04-16T06:58:44.221Z,16.50
2018-04-16T07:01:11.959Z,17.10
2018-04-16T07:03:39.695Z,23.03
2018-04-16T07:06:07.482Z,28.13
2018-04-16T07:08:35.253Z,9.27
2018-04-16T07:11:02.901Z,12.03
2018-04-16T07:13:30.492Z,17.30
2018-04-16T07:15:58.116Z,13.53
2018-04-16T07:18:25.708Z,14.63
2018-04-16T07:20:53.315Z,13.60
2018-04-16T07:23:20.996Z,14.80
2018-04-16T07:25:48.677Z,13.03
2018-04-16T07:28:16.346Z,12.13
2018-04-16T07:30:44.123Z,14.07
2018-04-16T07:33:11.681Z,14.37
2018-04-16T07:35:39.380Z,17.50
2018-04-16T07:38:06.956Z,11.97
2018-04-16T07:40:34.682Z,25.93
2018-04-16T07:43:02.254Z,14.97
2018-04-16T07:45:29.851Z,17.10
2018-04-16T07:47:57.421Z,16.33
2018-04-16T07:50:24.986Z,15.47
2018-04-16T07:52:52.559Z,16.03
2018-04-16T07:55:20.126Z,13.80
2018-04-16T07:57:47.693Z,19.93
2018-04-16T08:00:15.302Z,16.90
2018-04-16T08:02:42.842Z,17.77
2018-04-16T08:05:10.385Z,17.07
2018-04-16T08:07:37.975Z,19.00
2018-04-16T08:10:05.539Z,18.50
2018-04-16T08:12:33.160Z,19.07
2018-04-16T08:15:00.781Z,17.53
2018-04-16T08:17:28.632Z,17.10
2018-04-16T08:19:56.202Z,18.70
2018-04-16T08:22:23.982Z,15.83
2018-04-16T08:24:51.548Z,24.13
2018-04-16T08:27:19.248Z,22.50
2018-04-16T08:29:46.869Z,20.53
2018-04-16T08:32:14.579Z,20.10
2018-04-16T08:34:42.361Z,20.50
2018-04-16T08:37:09.921Z,19.87
2018-04-16T08:39:37.504Z,21.77
2018-04-16T08:42:05.152Z,23.23
2018-04-16T08:44:32.741Z,19.70
2018-04-16T08:47:00.296Z,21.43
2018-04-16T08:49:27.898Z,28.27
2018-04-16T08:51:55.541Z,19.50
2018-04-16T08:54:23.357Z,18.10
2018-04-16T08:56:51.204Z,15.27
2018-04-16T08:59:18.765Z,24.30
2018-04-16T09:01:46.330Z,18.37
2018-04-16T09:04:13.922Z,25.73
2018-04-16T09:06:41.493Z,16.33
2018-04-16T09:09:09.210Z,15.37
2018-04-16T09:11:37.006Z,19.50
2018-04-16T09:14:04.562Z,14.70
2018-04-16T09:16:32.199Z,24.60
2018-04-16T09:18:59.816Z,16.60
2018-04-16T09:21:27.363Z,15.70
2018-04-16T09:23:54.952Z,16.00
2018-04-16T09:26:22.522Z,20.83
2018-04-16T09:28:50.305Z,17.57
2018-04-16T09:31:17.882Z,18.77
2018-04-16T09:33:45.465Z,21.47
2018-04-16T09:36:13.255Z,18.77
2018-04-16T09:38:40.969Z,20.30
2018-04-16T09:41:08.680Z,22.80
2018-04-16T09:43:36.463Z,19.63
2018-04-16T09:46:04.028Z,18.17
2018-04-16T09:48:32.224Z,23.30
2018-04-16T09:50:59.778Z,21.40
2018-04-16T09:53:27.349Z,22.90
2018-04-16T09:55:55.067Z,27.23
2018-04-16T09:58:22.632Z,21.13
2018-04-16T10:00:52.006Z,26.47
2018-04-16T10:03:19.603Z,23.27
2018-04-16T10:05:48.207Z,18.20
2018-04-16T10:08:15.921Z,23.60
2018-04-16T10:10:43.474Z,26.33
2018-04-16T10:13:11.047Z,22.70
2018-04-16T10:15:38.693Z,23.40
2018-04-16T10:18:06.296Z,21.23
2018-04-16T10:20:34.032Z,25.30
2018-04-16T10:23:01.707Z,22.53
2018-04-16T10:25:29.918Z,27.63
2018-04-16T10:27:57.695Z,27.20
2018-04-16T10:30:25.280Z,31.20
2018-04-16T10:32:52.856Z,26.67
2018-04-16T10:35:20.411Z,24.63
2018-04-16T10:37:48.113Z,21.83
2018-04-16T10:40:15.659Z,22.17
2018-04-16T10:42:43.447Z,16.77
2018-04-16T10:45:11.023Z,19.70
2018-04-16T10:47:38.798Z,19.63
2018-04-16T10:50:06.342Z,19.67
2018-04-16T10:52:33.919Z,23.53
2018-04-16T10:55:01.721Z,20.10
2018-04-16T10:57:29.370Z,14.77
2018-04-16T10:59:56.989Z,21.27
2018-04-16T11:02:24.693Z,16.40
2018-04-16T11:04:52.267Z,17.87
2018-04-16T11:07:19.858Z,14.93
2018-04-16T11:09:47.671Z,13.50
2018-04-16T11:12:15.272Z,14.00
2018-04-16T11:14:42.978Z,15.73
2018-04-16T11:17:10.554Z,16.57
2018-04-16T11:19:38.137Z,14.53
2018-04-16T11:22:05.684Z,12.90
2018-04-16T11:24:33.271Z,15.00
2018-04-16T11:27:01.097Z,14.17
2018-04-16T11:29:28.930Z,11.20
2018-04-16T11:31:56.494Z,12.10
2018-04-16T11:34:24.052Z,19.10
2018-04-16T11:36:51.840Z,12.00
2018-04-16T11:39:19.394Z,14.70
2018-04-16T11:41:47.147Z,12.70
2018-04-16T11:44:14.730Z,16.33
2018-04-16T11:46:42.285Z,11.50
2018-04-16T11:49:09.992Z,9.70
2018-04-16T11:51:37.535Z,16.17
2018-04-16T11:54:05.322Z,13.50
2018-04-16T11:56:32.891Z,15.53
2018-04-16T11:59:00.468Z,12.00
2018-04-16T12:01:28.470Z,12.40
2018-04-16T12:03:56.030Z,11.37
2018-04-16T12:06:23.600Z,10.10
2018-04-16T12:08:51.371Z,10.90
2018-04-16T12:11:19.159Z,6.63
2018-04-16T12:13:46.968Z,10.00
2018-04-16T12:16:14.538Z,6.07
2018-04-16T12:18:42.109Z,10.93
2018-04-16T12:21:09.670Z,7.43
2018-04-16T12:23:37.215Z,11.23
2018-04-16T12:26:04.968Z,10.23
2018-04-16T12:28:32.506Z,13.50
2018-04-16T12:31:00.350Z,17.80
2018-04-16T12:33:27.896Z,9.83
2018-04-16T12:35:55.633Z,10.90
2018-04-16T12:38:23.382Z,10.30
2018-04-16T12:40:50.960Z,12.13
2018-04-16T12:43:18.666Z,14.47
2018-04-16T12:45:46.229Z,12.17
2018-04-16T12:48:13.784Z,12.50
2018-04-16T12:50:41.355Z,14.37
2018-04-16T12:53:08.896Z,6.83
2018-04-16T12:55:36.503Z,8.47
2018-04-16T12:58:04.070Z,8.23
2018-04-16T13:00:31.621Z,10.27
2018-04-16T13:02:59.420Z,7.53
2018-04-16T13:05:26.975Z,6.47
2018-04-16T13:07:54.708Z,8.03
2018-04-16T13:10:22.454Z,5.10
2018-04-16T13:12:50.040Z,7.17
2018-04-16T13:15:17.593Z,9.47
2018-04-16T13:17:45.286Z,8.60
2018-04-16T13:20:13.078Z,4.50
2018-04-16T13:22:40.828Z,9.13
2018-04-16T13:25:08.606Z,4.90
2018-04-16T13:27:36.160Z,10.63
2018-04-16T13:30:03.957Z,13.03
2018-04-16T13:32:31.512Z,6.80
2018-04-16T13:34:59.093Z,13.50
2018-04-16T13:37:27.085Z,5.30
2018-04-16T13:39:54.866Z,5.13
2018-04-16T13:42:22.591Z,8.40
2018-04-16T13:44:50.422Z,10.40
2018-04-16T13:47:18.198Z,4.90
2018-04-16T13:49:45.770Z,9.13
2018-04-16T13:52:13.549Z,4.70
2018-04-16T13:54:41.252Z,8.83
2018-04-16T13:57:08.789Z,10.00
2018-04-16T13:59:36.326Z,7.40
2018-04-16T14:02:03.939Z,6.43
2018-04-16T14:04:31.501Z,10.10
2018-04-16T14:06:59.057Z,6.73
2018-04-16T14:09:26.659Z,7.47
2018-04-16T14:11:54.198Z,10.63
2018-04-16T14:14:22.017Z,6.27
2018-04-16T14:16:49.609Z,9.07
2018-04-16T14:19:17.145Z,4.70
2018-04-16T14:21:44.741Z,4.57
2018-04-16T14:24:12.300Z,9.23
2018-04-16T14:26:39.994Z,11.90
2018-04-16T14:29:07.770Z,5.23
2018-04-16T14:31:35.315Z,6.30
2018-04-16T14:34:02.891Z,7.57
2018-04-16T14:36:30.626Z,8.23
2018-04-16T14:38:58.189Z,11.40
2018-04-16T14:41:25.745Z,17.77
2018-04-16T14:43:53.343Z,15.17
2018-04-16T14:46:20.909Z,10.20
2018-04-16T14:48:48.824Z,11.77
2018-04-16T14:51:16.377Z,7.03
2018-04-16T14:53:43.924Z,6.83
2018-04-16T14:56:11.490Z,10.57
2018-04-16T14:58:39.265Z,10.67
2018-04-16T15:01:06.857Z,10.33
2018-04-16T15:03:34.475Z,9.80
2018-04-16T15:06:02.290Z,7.27
2018-04-16T15:08:30.270Z,11.17
2018-04-16T15:10:57.831Z,13.97
2018-04-16T15:13:25.379Z,7.13
2018-04-16T15:15:53.196Z,8.33
2018-04-16T15:18:21.126Z,8.83
2018-04-16T15:20:48.854Z,8.20
2018-04-16T15:23:16.418Z,10.53
2018-04-16T15:25:44.121Z,7.67
2018-04-16T15:28:11.843Z,6.37
2018-04-16T15:30:39.400Z,6.73
2018-04-16T15:33:06.976Z,9.10
2018-04-16T15:35:34.512Z,5.90
2018-04-16T15:38:02.106Z,6.93
2018-04-16T15:40:29.723Z,9.87
2018-04-16T15:42:57.456Z,10.63
2018-04-16T15:45:25.024Z,13.57
2018-04-16T15:47:52.558Z,12.13
2018-04-16T15:50:20.281Z,6.60
2018-04-16T15:52:47.841Z,22.17
2018-04-16T15:55:15.404Z,13.00
2018-04-16T15:57:42.966Z,8.97
2018-04-16T16:00:10.551Z,9.97
2018-04-16T16:02:38.090Z,11.63
2018-04-16T16:05:05.655Z,12.00
2018-04-16T16:07:33.672Z,18.33
2018-04-16T16:10:01.226Z,10.40
2018-04-16T16:12:28.777Z,9.60
2018-04-16T16:14:56.378Z,8.43
2018-04-16T16:17:24.163Z,14.03
2018-04-16T16:19:51.712Z,10.27
2018-04-16T16:22:19.344Z,9.77
2018-04-16T16:24:46.896Z,17.67
2018-04-16T16:27:14.665Z,13.97
2018-04-16T16:29:42.231Z,7.83
2018-04-16T16:32:10.015Z,12.03
2018-04-16T16:34:37.604Z,19.43
2018-04-16T16:37:05.185Z,10.33
2018-04-16T16:39:32.865Z,11.80
2018-04-16T16:42:00.435Z,10.67
2018-04-16T16:44:27.993Z,14.13
2018-04-16T16:46:55.580Z,6.30
2018-04-16T16:49:23.124Z,17.13
2018-04-16T16:51:50.909Z,11.70
2018-04-16T16:54:18.483Z,11.37
2018-04-16T16:56:46.059Z,15.03
2018-04-16T16:59:13.630Z,13.83
2018-04-16T17:01:41.405Z,9.47
2018-04-16T17:04:08.970Z,11.43
2018-04-16T17:06:36.523Z,12.87
2018-04-16T17:09:04.671Z,17.73
2018-04-16T17:11:32.417Z,6.17
2018-04-16T17:14:00.008Z,13.97
2018-04-16T17:16:27.579Z,8.07
2018-04-16T17:18:55.164Z,11.67
2018-04-16T17:21:22.733Z,18.57
2018-04-16T17:23:50.590Z,14.33
2018-04-16T17:26:18.181Z,13.10
2018-04-16T17:28:45.759Z,9.63
2018-04-16T17:31:13.310Z,18.53
2018-04-16T17:33:40.892Z,15.23
2018-04-16T17:36:08.435Z,28.50
2018-04-16T17:38:36.488Z,14.77
2018-04-16T17:41:04.138Z,16.00
2018-04-16T17:43:31.695Z,12.60
2018-04-16T17:45:59.309Z,14.97
2018-04-16T17:48:26.915Z,11.57
2018-04-16T17:50:54.508Z,15.83
2018-04-16T17:53:22.077Z,14.20
2018-04-16T17:55:49.779Z,14.90
2018-04-16T17:58:17.339Z,9.30
2018-04-16T18:00:44.889Z,8.43
2018-04-16T18:03:12.473Z,13.93
2018-04-16T18:05:40.077Z,9.90
2018-04-16T18:08:07.836Z,19.50
2018-04-16T18:10:35.376Z,15.73
2018-04-16T18:13:02.942Z,12.07
2018-04-16T18:15:30.762Z,8.60
2018-04-16T18:17:58.454Z,18.53
2018-04-16T18:20:26.002Z,11.30
2018-04-16T18:22:53.791Z,20.33
2018-04-16T18:25:21.392Z,12.73
2018-04-16T18:27:48.931Z,15.17
2018-04-16T18:30:16.510Z,11.73
2018-04-16T18:32:44.092Z,8.93
2018-04-16T18:35:11.716Z,14.97
2018-04-16T18:37:39.374Z,15.37
2018-04-16T18:40:06.927Z,14.43
2018-04-16T18:42:34.508Z,21.60
2018-04-16T18:45:02.538Z,17.10
2018-04-16T18:47:30.086Z,17.57
2018-04-16T18:49:57.808Z,8.97
2018-04-16T18:52:25.505Z,21.83
2018-04-16T18:54:53.051Z,31.63
2018-04-16T18:57:20.644Z,15.33
2018-04-16T18:59:48.652Z,18.03
2018-04-16T19:02:16.253Z,12.90
2018-04-16T19:04:43.818Z,11.27
2018-04-16T19:07:11.382Z,18.20
2018-04-16T19:09:39.143Z,15.47
2018-04-16T19:12:06.701Z,13.00
2018-04-16T19:14:34.703Z,8.70
2018-04-16T19:17:02.328Z,10.60
2018-04-16T19:19:29.884Z,15.17
2018-04-16T19:21:57.780Z,15.73
2018-04-16T19:24:25.531Z,24.50
2018-04-16T19:26:58.965Z,16.57
2018-04-16T19:29:26.541Z,9.43
2018-04-16T19:31:54.097Z,7.23
2018-04-16T19:34:27.506Z,10.57
2018-04-16T19:36:55.068Z,10.93
2018-04-16T19:39:22.606Z,15.17
2018-04-16T19:41:55.695Z,19.37
2018-04-16T19:44:23.272Z,14.43
2018-04-16T19:46:50.823Z,15.20
2018-04-16T19:49:24.066Z,14.57
2018-04-16T19:51:51.610Z,15.23
2018-04-16T19:54:19.192Z,12.33
2018-04-16T19:56:52.856Z,31.97
2018-04-16T19:59:20.591Z,13.60
2018-04-16T20:01:53.707Z,20.37
2018-04-16T20:04:21.259Z,14.10
2018-04-16T20:06:48.827Z,18.73
2018-04-16T20:09:16.408Z,13.93
2018-04-16T20:11:44.163Z,18.10
2018-04-16T20:14:11.799Z,11.93
2018-04-16T20:16:39.504Z,19.90
2018-04-16T20:19:07.049Z,12.83
2018-04-16T20:21:34.900Z,17.73
2018-04-16T20:24:02.438Z,17.57
2018-04-16T20:26:30.248Z,18.83
2018-04-16T20:28:57.950Z,36.00
2018-04-16T20:31:25.654Z,15.67
2018-04-16T20:33:53.195Z,17.10
2018-04-16T20:36:20.776Z,13.37
2018-04-16T20:38:48.349Z,12.63
2018-04-16T20:41:15.901Z,18.80
2018-04-16T20:43:43.904Z,15.80
2018-04-16T20:46:11.543Z,16.63
2018-04-16T20:48:39.097Z,14.03
2018-04-16T20:51:06.837Z,14.17
2018-04-16T20:53:34.380Z,20.23
2018-04-16T20:56:01.926Z,18.33
2018-04-16T20:58:29.508Z,15.53
2018-04-16T21:00:57.064Z,12.30
2018-04-16T21:03:24.669Z,16.10
2018-04-16T21:05:52.392Z,12.80
2018-04-16T21:08:19.945Z,12.53
2018-04-16T21:10:47.799Z,16.93
2018-04-16T21:13:15.342Z,15.67
2018-04-16T21:15:42.893Z,9.50
2018-04-16T21:18:10.468Z,16.73
2018-04-16T21:20:38.194Z,12.57
2018-04-16T21:23:05.997Z,14.03
2018-04-16T21:25:33.553Z,12.60
2018-04-16T21:28:01.099Z,18.40
2018-04-16T21:30:28.733Z,9.53
2018-04-16T21:32:56.289Z,20.63
2018-04-16T21:35:23.891Z,19.70
2018-04-16T21:37:51.716Z,15.20
2018-04-16T21:40:19.296Z,23.40
2018-04-16T21:42:46.838Z,18.83
2018-04-16T21:45:14.399Z,15.57
2018-04-16T21:47:41.977Z,20.47
2018-04-16T21:50:09.555Z,11.93
2018-04-16T21:52:37.141Z,18.53
2018-04-16T21:55:04.936Z,15.23
2018-04-16T21:57:32.522Z,7.80
2018-04-16T22:00:00.283Z,13.80
2018-04-16T22:02:27.828Z,18.63
2018-04-16T22:04:55.863Z,17.20
2018-04-16T22:07:23.619Z,13.67
2018-04-16T22:09:51.209Z,22.40
2018-04-16T22:12:19.073Z,10.83
2018-04-16T22:14:46.757Z,9.60
2018-04-16T22:17:14.315Z,10.70
2018-04-16T22:19:41.888Z,10.70
2018-04-16T22:22:09.674Z,14.57
2018-04-16T22:24:37.280Z,10.63
2018-04-16T22:27:04.871Z,12.90
2018-04-16T22:29:32.421Z,9.17
2018-04-16T22:32:00.201Z,17.00
2018-04-16T22:34:27.759Z,10.20
2018-04-16T22:36:55.309Z,14.80
2018-04-16T22:39:22.882Z,10.47
2018-04-16T22:41:50.445Z,13.63
2018-04-16T22:44:18.385Z,15.00
2018-04-16T22:46:45.944Z,10.60
2018-04-16T22:49:13.509Z,17.50
2018-04-16T22:51:41.107Z,13.90
2018-04-16T22:54:08.737Z,16.87
2018-04-16T22:56:36.306Z,12.47
2018-04-16T22:59:03.883Z,10.93
2018-04-16T23:01:31.771Z,24.93
2018-04-16T23:03:59.316Z,9.57
2018-04-16T23:06:27.036Z,12.07
2018-04-16T23:08:54.750Z,12.60
2018-04-16T23:11:22.298Z,17.47
2018-04-16T23:13:49.870Z,12.67
2018-04-16T23:16:17.424Z,18.33
2018-04-16T23:18:45.028Z,16.90
2018-04-16T23:21:12.575Z,14.57
2018-04-16T23:23:40.138Z,18.47
2018-04-16T23:26:08.011Z,11.70
2018-04-16T23:28:35.755Z,16.30
2018-04-16T23:31:03.318Z,19.73
2018-04-16T23:33:31.303Z,12.20
2018-04-16T23:35:59.120Z,14.50
2018-04-16T23:38:26.684Z,11.50
2018-04-16T23:40:54.813Z,13.37
2018-04-16T23:43:22.368Z,13.10
2018-04-16T23:45:50.097Z,9.37
2018-04-16T23:48:17.676Z,11.50
2018-04-16T23:50:45.252Z,9.03
2018-04-16T23:53:12.797Z,13.87
2018-04-16T23:55:40.380Z,17.87
2018-04-16T23:58:07.947Z,6.60
